sensor_id;sensor_type;location;lat;lon;timestamp;pressure;altitude;pressure_sealevel;temperature;humidity
48386;BME280;34644;47.964;7.982;2023-05-01T00:05:38;96504.31;;;17.71;64.74
48386;BME280;34644;47.964;7.982;2023-05-01T00:12:38;96500.03;;;17.70;64.78
48386;BME280;34644;47.964;7.982;2023-05-01T00:19:39;96487.78;;;17.69;64.90
48386;BME280;34644;47.964;7.982;2023-05-01T00:26:39;96481.66;;;17.69;65.02
48386;BME280;34644;47.964;7.982;2023-05-01T00:33:40;96481.38;;;17.70;65.06
48386;BME280;34644;47.964;7.982;2023-05-01T00:40:44;96471.00;;;17.69;64.97
48386;BME280;34644;47.964;7.982;2023-05-01T00:47:44;96460.34;;;17.69;65.19
48386;BME280;34644;47.964;7.982;2023-05-01T00:54:45;96455.78;;;17.69;65.11
48386;BME280;34644;47.964;7.982;2023-05-01T01:01:51;96455.00;;;17.69;65.08
48386;BME280;34644;47.964;7.982;2023-05-01T01:37:50;96416.91;;;17.68;65.65
48386;BME280;34644;47.964;7.982;2023-05-01T01:44:54;96415.81;;;17.69;65.63
48386;BME280;34644;47.964;7.982;2023-05-01T01:51:55;96413.16;;;17.69;65.66
48386;BME280;34644;47.964;7.982;2023-05-01T01:58:59;96412.38;;;17.69;65.81
48386;BME280;34644;47.964;7.982;2023-05-01T02:06:00;96408.91;;;17.68;65.86
48386;BME280;34644;47.964;7.982;2023-05-01T02:13:00;96399.31;;;17.67;65.92
48386;BME280;34644;47.964;7.982;2023-05-01T02:20:02;96401.72;;;17.69;65.83
48386;BME280;34644;47.964;7.982;2023-05-01T02:27:10;96402.00;;;17.67;65.91
48386;BME280;34644;47.964;7.982;2023-05-01T02:34:12;96398.53;;;17.67;65.96
48386;BME280;34644;47.964;7.982;2023-05-01T02:41:12;96394.00;;;17.67;66.05
48386;BME280;34644;47.964;7.982;2023-05-01T02:48:15;96390.81;;;17.65;66.05
48386;BME280;34644;47.964;7.982;2023-05-01T02:55:17;96387.09;;;17.66;65.96
48386;BME280;34644;47.964;7.982;2023-05-01T03:02:18;96387.88;;;17.67;66.20
48386;BME280;34644;47.964;7.982;2023-05-01T03:09:19;96383.91;;;17.64;66.27
48386;BME280;34644;47.964;7.982;2023-05-01T03:16:20;96388.94;;;17.66;66.34
48386;BME280;34644;47.964;7.982;2023-05-01T03:23:20;96388.94;;;17.66;66.37
48386;BME280;34644;47.964;7.982;2023-05-01T03:30:20;96379.09;;;17.66;66.34
48386;BME280;34644;47.964;7.982;2023-05-01T03:37:21;96372.47;;;17.64;66.36
48386;BME280;34644;47.964;7.982;2023-05-01T03:44:22;96378.56;;;17.64;66.37
48386;BME280;34644;47.964;7.982;2023-05-01T03:51:23;96383.41;;;17.62;66.58
48386;BME280;34644;47.964;7.982;2023-05-01T03:58:26;96386.06;;;17.62;66.53
48386;BME280;34644;47.964;7.982;2023-05-01T04:05:26;96387.13;;;17.61;66.40
48386;BME280;34644;47.964;7.982;2023-05-01T04:12:32;96395.13;;;17.61;66.54
48386;BME280;34644;47.964;7.982;2023-05-01T04:19:33;96394.63;;;17.59;66.60
48386;BME280;34644;47.964;7.982;2023-05-01T04:26:34;96393.56;;;17.60;66.67
48386;BME280;34644;47.964;7.982;2023-05-01T04:33:34;96401.03;;;17.58;66.63
48386;BME280;34644;47.964;7.982;2023-05-01T04:40:35;96401.84;;;17.59;66.50
48386;BME280;34644;47.964;7.982;2023-05-01T04:47:35;96399.44;;;17.57;66.66
48386;BME280;34644;47.964;7.982;2023-05-01T04:54:36;96411.69;;;17.58;66.67
48386;BME280;34644;47.964;7.982;2023-05-01T05:01:37;96410.13;;;17.57;66.75
48386;BME280;34644;47.964;7.982;2023-05-01T05:08:38;96413.78;;;17.61;66.49
48386;BME280;34644;47.964;7.982;2023-05-01T05:15:43;96417.53;;;17.60;66.65
48386;BME280;34644;47.964;7.982;2023-05-01T05:22:45;96415.66;;;17.61;66.57
48386;BME280;34644;47.964;7.982;2023-05-01T05:30:04;96412.22;;;17.60;66.61
48386;BME280;34644;47.964;7.982;2023-05-01T05:37:05;96421.28;;;17.59;66.36
48386;BME280;34644;47.964;7.982;2023-05-01T05:44:11;96426.59;;;17.59;66.11
48386;BME280;34644;47.964;7.982;2023-05-01T05:51:11;96425.00;;;17.58;66.14
48386;BME280;34644;47.964;7.982;2023-05-01T05:58:12;96426.88;;;17.58;65.96
48386;BME280;34644;47.964;7.982;2023-05-01T06:05:14;96439.41;;;17.57;65.90
48386;BME280;34644;47.964;7.982;2023-05-01T06:12:14;96440.50;;;17.56;65.96
48386;BME280;34644;47.964;7.982;2023-05-01T06:19:15;96426.38;;;17.56;65.93
48386;BME280;34644;47.964;7.982;2023-05-01T06:26:16;96429.03;;;17.56;65.70
48386;BME280;34644;47.964;7.982;2023-05-01T06:33:16;96435.16;;;17.56;65.87
48386;BME280;34644;47.964;7.982;2023-05-01T06:40:25;96439.97;;;17.54;65.84
48386;BME280;34644;47.964;7.982;2023-05-01T06:47:25;96439.97;;;17.54;65.74
48386;BME280;34644;47.964;7.982;2023-05-01T06:54:26;96446.09;;;17.54;65.91
48386;BME280;34644;47.964;7.982;2023-05-01T07:01:26;96450.06;;;17.57;65.86
48386;BME280;34644;47.964;7.982;2023-05-01T07:08:26;96455.41;;;17.57;65.81
48386;BME280;34644;47.964;7.982;2023-05-01T07:15:27;96451.16;;;17.56;65.97
48386;BME280;34644;47.964;7.982;2023-05-01T07:22:27;96465.53;;;17.55;66.02
48386;BME280;34644;47.964;7.982;2023-05-01T07:29:30;96473.53;;;17.55;66.13
48386;BME280;34644;47.964;7.982;2023-05-01T07:36:31;96471.16;;;17.53;66.17
48386;BME280;34644;47.964;7.982;2023-05-01T07:43:32;96471.97;;;17.54;66.03
48386;BME280;34644;47.964;7.982;2023-05-01T07:50:33;96475.69;;;17.53;66.05
48386;BME280;34644;47.964;7.982;2023-05-01T07:57:34;96475.69;;;17.53;66.02
48386;BME280;34644;47.964;7.982;2023-05-01T08:04:34;96482.09;;;17.52;66.06
48386;BME280;34644;47.964;7.982;2023-05-01T08:11:34;96483.69;;;17.53;65.80
48386;BME280;34644;47.964;7.982;2023-05-01T08:18:35;96482.34;;;17.56;65.94
48386;BME280;34644;47.964;7.982;2023-05-01T08:25:35;96485.16;;;17.64;66.25
48386;BME280;34644;47.964;7.982;2023-05-01T08:32:35;96479.13;;;17.83;65.78
48386;BME280;34644;47.964;7.982;2023-05-01T08:39:35;96477.97;;;17.94;65.56
48386;BME280;34644;47.964;7.982;2023-05-01T08:46:46;96475.00;;;17.96;65.55
48386;BME280;34644;47.964;7.982;2023-05-01T08:53:47;96480.00;;;18.02;65.68
48386;BME280;34644;47.964;7.982;2023-05-01T09:00:51;96470.94;;;18.03;65.46
48386;BME280;34644;47.964;7.982;2023-05-01T09:07:54;96473.59;;;18.03;65.06
48386;BME280;34644;47.964;7.982;2023-05-01T09:14:55;96481.59;;;18.03;65.74
48386;BME280;34644;47.964;7.982;2023-05-01T09:21:56;96477.56;;;18.06;65.60
48386;BME280;34644;47.964;7.982;2023-05-01T09:28:56;96482.28;;;18.14;65.24
48386;BME280;34644;47.964;7.982;2023-05-01T09:35:57;96484.94;;;18.14;65.64
48386;BME280;34644;47.964;7.982;2023-05-01T09:42:58;96491.69;;;18.06;65.49
48386;BME280;34644;47.964;7.982;2023-05-01T09:49:59;96480.00;;;18.02;65.39
48386;BME280;34644;47.964;7.982;2023-05-01T09:57:01;96476.25;;;18.03;65.63
48386;BME280;34644;47.964;7.982;2023-05-01T10:04:01;96468.03;;;18.00;65.71
48386;BME280;34644;47.964;7.982;2023-05-01T10:11:02;96468.53;;;18.02;65.48
48386;BME280;34644;47.964;7.982;2023-05-01T10:18:10;96461.28;;;18.07;65.50
48386;BME280;34644;47.964;7.982;2023-05-01T10:25:11;96454.28;;;18.12;65.82
48386;BME280;34644;47.964;7.982;2023-05-01T10:32:12;96459.84;;;18.15;65.38
48386;BME280;34644;47.964;7.982;2023-05-01T10:39:28;96455.03;;;18.17;65.68
48386;BME280;34644;47.964;7.982;2023-05-01T10:46:28;96456.03;;;18.21;65.90
48386;BME280;34644;47.964;7.982;2023-05-01T10:53:29;96450.69;;;18.21;65.90
48386;BME280;34644;47.964;7.982;2023-05-01T11:00:29;96460.00;;;18.24;66.00
48386;BME280;34644;47.964;7.982;2023-05-01T11:07:29;96448.78;;;18.27;65.90
48386;BME280;34644;47.964;7.982;2023-05-01T11:21:49;96440.28;;;18.25;65.95
48386;BME280;34644;47.964;7.982;2023-05-01T11:28:50;96432.78;;;18.27;65.84
48386;BME280;34644;47.964;7.982;2023-05-01T11:35:56;96433.34;;;18.24;66.00
48386;BME280;34644;47.964;7.982;2023-05-01T11:43:01;96429.38;;;18.21;66.14
48386;BME280;34644;47.964;7.982;2023-05-01T11:50:02;96429.38;;;18.21;66.09
48386;BME280;34644;47.964;7.982;2023-05-01T11:57:02;96417.91;;;18.21;65.76
48386;BME280;34644;47.964;7.982;2023-05-01T12:04:04;96419.22;;;18.23;65.87
48386;BME280;34644;47.964;7.982;2023-05-01T12:11:05;96415.69;;;18.28;65.90
48386;BME280;34644;47.964;7.982;2023-05-01T12:18:05;96400.69;;;18.32;65.65
48386;BME280;34644;47.964;7.982;2023-05-01T12:25:06;96408.91;;;18.36;65.66
48386;BME280;34644;47.964;7.982;2023-05-01T12:32:07;96417.13;;;18.39;65.64
48386;BME280;34644;47.964;7.982;2023-05-01T12:39:08;96406.19;;;18.41;65.79
48386;BME280;34644;47.964;7.982;2023-05-01T12:46:12;96411.22;;;18.42;65.56
48386;BME280;34644;47.964;7.982;2023-05-01T12:53:13;96415.53;;;18.38;65.76
48386;BME280;34644;47.964;7.982;2023-05-01T13:00:14;96417.72;;;18.36;65.88
48386;BME280;34644;47.964;7.982;2023-05-01T13:07:15;96417.19;;;18.34;65.78
48386;BME280;34644;47.964;7.982;2023-05-01T13:14:15;96418.00;;;18.35;65.99
48386;BME280;34644;47.964;7.982;2023-05-01T13:21:17;96414.81;;;18.33;65.80
48386;BME280;34644;47.964;7.982;2023-05-01T13:28:18;96422.81;;;18.33;66.07
48386;BME280;34644;47.964;7.982;2023-05-01T13:35:23;96416.91;;;18.36;65.97
48386;BME280;34644;47.964;7.982;2023-05-01T13:42:25;96411.81;;;18.39;65.88
48386;BME280;34644;47.964;7.982;2023-05-01T13:49:26;96419.00;;;18.39;65.69
48386;BME280;34644;47.964;7.982;2023-05-01T13:56:27;96420.88;;;18.38;65.85
48386;BME280;34644;47.964;7.982;2023-05-01T14:03:28;96412.00;;;18.43;65.59
48386;BME280;34644;47.964;7.982;2023-05-01T14:10:29;96406.88;;;18.47;65.64
48386;BME280;34644;47.964;7.982;2023-05-01T14:17:31;96397.31;;;18.46;65.37
48386;BME280;34644;47.964;7.982;2023-05-01T14:24:35;96395.44;;;18.46;65.52
48386;BME280;34644;47.964;7.982;2023-05-01T14:31:36;96399.69;;;18.47;65.41
48386;BME280;34644;47.964;7.982;2023-05-01T14:38:38;96397.22;;;18.51;65.38
48386;BME280;34644;47.964;7.982;2023-05-01T14:45:39;96400.69;;;18.51;65.31
48386;BME280;34644;47.964;7.982;2023-05-01T14:52:41;96391.91;;;18.51;65.48
48386;BME280;34644;47.964;7.982;2023-05-01T14:59:42;96383.31;;;18.54;65.39
48386;BME280;34644;47.964;7.982;2023-05-01T15:06:42;96375.09;;;18.50;65.32
48386;BME280;34644;47.964;7.982;2023-05-01T15:13:42;96389.22;;;18.51;65.24
48386;BME280;34644;47.964;7.982;2023-05-01T15:20:44;96382.28;;;18.50;65.29
48386;BME280;34644;47.964;7.982;2023-05-01T15:27:46;96389.22;;;18.51;65.10
48386;BME280;34644;47.964;7.982;2023-05-01T15:34:46;96385.47;;;18.52;65.22
48386;BME280;34644;47.964;7.982;2023-05-01T15:41:46;96405.53;;;18.49;65.19
48386;BME280;34644;47.964;7.982;2023-05-01T15:48:47;96416.47;;;18.48;65.20
48386;BME280;34644;47.964;7.982;2023-05-01T15:55:48;96472.31;;;18.44;65.66
48386;BME280;34644;47.964;7.982;2023-05-01T16:02:48;96457.66;;;18.41;65.43
48386;BME280;34644;47.964;7.982;2023-05-01T16:09:49;96465.16;;;18.39;65.50
48386;BME280;34644;47.964;7.982;2023-05-01T16:16:49;96478.22;;;18.41;65.43
48386;BME280;34644;47.964;7.982;2023-05-01T16:23:50;96480.06;;;18.40;65.39
48386;BME280;34644;47.964;7.982;2023-05-01T16:30:51;96489.19;;;18.39;65.63
48386;BME280;34644;47.964;7.982;2023-05-01T16:37:53;96497.47;;;18.38;65.80
48386;BME280;34644;47.964;7.982;2023-05-01T16:44:54;96501.19;;;18.37;65.78
48386;BME280;34644;47.964;7.982;2023-05-01T16:51:55;96498.81;;;18.35;65.59
48386;BME280;34644;47.964;7.982;2023-05-01T16:58:57;96501.47;;;18.35;65.60
48386;BME280;34644;47.964;7.982;2023-05-01T17:05:58;96501.47;;;18.35;65.54
48386;BME280;34644;47.964;7.982;2023-05-01T17:12:59;96500.16;;;18.33;65.79
48386;BME280;34644;47.964;7.982;2023-05-01T17:19:59;96503.94;;;18.32;65.84
48386;BME280;34644;47.964;7.982;2023-05-01T17:27:00;96503.72;;;18.28;65.12
48386;BME280;34644;47.964;7.982;2023-05-01T17:34:00;96502.66;;;18.05;64.51
48386;BME280;34644;47.964;7.982;2023-05-01T17:41:01;96511.63;;;17.85;63.06
48386;BME280;34644;47.964;7.982;2023-05-01T17:48:02;96518.06;;;17.79;62.87
48386;BME280;34644;47.964;7.982;2023-05-01T17:55:02;96523.19;;;17.75;62.72
48386;BME280;34644;47.964;7.982;2023-05-01T18:02:02;96535.88;;;17.88;63.00
48386;BME280;34644;47.964;7.982;2023-05-01T18:09:06;96544.63;;;17.94;63.02
48386;BME280;34644;47.964;7.982;2023-05-01T18:16:07;96546.84;;;17.82;63.06
48386;BME280;34644;47.964;7.982;2023-05-01T18:23:08;96555.38;;;17.79;62.73
48386;BME280;34644;47.964;7.982;2023-05-01T18:30:09;96561.06;;;17.72;62.58
48386;BME280;34644;47.964;7.982;2023-05-01T18:37:10;96568.53;;;17.70;62.47
48386;BME280;34644;47.964;7.982;2023-05-01T18:44:10;96577.09;;;17.67;62.38
48386;BME280;34644;47.964;7.982;2023-05-01T18:51:10;96583.97;;;17.73;62.56
48386;BME280;34644;47.964;7.982;2023-05-01T19:05:43;96605.31;;;17.73;63.31
48386;BME280;34644;47.964;7.982;2023-05-01T19:12:43;96618.09;;;17.71;63.43
48386;BME280;34644;47.964;7.982;2023-05-01T19:19:44;96635.44;;;17.68;63.50
48386;BME280;34644;47.964;7.982;2023-05-01T19:26:44;96642.34;;;17.69;63.59
48386;BME280;34644;47.964;7.982;2023-05-01T19:33:45;96647.69;;;17.69;63.69
48386;BME280;34644;47.964;7.982;2023-05-01T19:40:46;96656.50;;;17.70;63.90
48386;BME280;34644;47.964;7.982;2023-05-01T19:47:46;96657.56;;;17.69;63.93
48386;BME280;34644;47.964;7.982;2023-05-01T19:54:47;96663.97;;;17.68;63.75
48386;BME280;34644;47.964;7.982;2023-05-01T20:01:47;96674.09;;;17.66;63.73
48386;BME280;34644;47.964;7.982;2023-05-01T20:08:47;96682.94;;;17.61;63.52
48386;BME280;34644;47.964;7.982;2023-05-01T20:15:48;96697.63;;;17.59;62.95
48386;BME280;34644;47.964;7.982;2023-05-01T20:30:45;96711.97;;;17.68;64.55
48386;BME280;34644;47.964;7.982;2023-05-01T20:37:46;96704.47;;;17.70;65.01
48386;BME280;34644;47.964;7.982;2023-05-01T20:44:46;96708.72;;;17.71;65.17
48386;BME280;34644;47.964;7.982;2023-05-01T20:51:47;96704.19;;;17.71;65.20
48386;BME280;34644;47.964;7.982;2023-05-01T20:58:47;96714.84;;;17.71;65.26
48386;BME280;34644;47.964;7.982;2023-05-01T21:05:48;96724.69;;;17.71;65.41
48386;BME280;34644;47.964;7.982;2023-05-01T21:12:48;96730.84;;;17.71;65.33
48386;BME280;34644;47.964;7.982;2023-05-01T21:19:48;96732.44;;;17.72;65.41
48386;BME280;34644;47.964;7.982;2023-05-01T21:26:48;96736.97;;;17.72;65.50
48386;BME280;34644;47.964;7.982;2023-05-01T21:33:49;96728.97;;;17.72;65.48
48386;BME280;34644;47.964;7.982;2023-05-01T21:40:49;96730.84;;;17.71;65.58
48386;BME280;34644;47.964;7.982;2023-05-01T21:47:50;96734.03;;;17.73;65.94
48386;BME280;34644;47.964;7.982;2023-05-01T21:54:50;96736.69;;;17.73;66.06
48386;BME280;34644;47.964;7.982;2023-05-01T22:01:50;96742.03;;;17.73;66.05
48386;BME280;34644;47.964;7.982;2023-05-01T22:08:51;96742.03;;;17.73;66.21
48386;BME280;34644;47.964;7.982;2023-05-01T22:15:51;96750.81;;;17.74;66.12
48386;BME280;34644;47.964;7.982;2023-05-01T22:22:52;96742.03;;;17.73;66.50
48386;BME280;34644;47.964;7.982;2023-05-01T22:29:52;96747.34;;;17.73;66.34
48386;BME280;34644;47.964;7.982;2023-05-01T22:36:55;96752.69;;;17.73;66.40
48386;BME280;34644;47.964;7.982;2023-05-01T22:43:55;96756.97;;;17.75;66.51
48386;BME280;34644;47.964;7.982;2023-05-01T22:50:56;96764.94;;;17.75;66.64
48386;BME280;34644;47.964;7.982;2023-05-01T22:57:56;96768.69;;;17.73;66.62
48386;BME280;34644;47.964;7.982;2023-05-01T23:04:56;96782.78;;;17.74;66.88
48386;BME280;34644;47.964;7.982;2023-05-01T23:11:57;96782.78;;;17.74;66.80
48386;BME280;34644;47.964;7.982;2023-05-01T23:18:57;96782.00;;;17.73;67.04
48386;BME280;34644;47.964;7.982;2023-05-01T23:25:58;96788.94;;;17.75;66.97
48386;BME280;34644;47.964;7.982;2023-05-01T23:32:58;96790.00;;;17.73;66.87
48386;BME280;34644;47.964;7.982;2023-05-01T23:39:58;96784.41;;;17.75;67.08
48386;BME280;34644;47.964;7.982;2023-05-01T23:47:00;96778.56;;;17.73;67.18
48386;BME280;34644;47.964;7.982;2023-05-01T23:54:00;96782.78;;;17.74;67.26
